Time;durP1;ratioP1;P1;durP2;ratioP2;P2;SDS_P1;SDS_P2;PMS_P1;PMS_P2;Temp;Humidity;BMP_temperature;BMP_pressure;BME280_temperature;BME280_humidity;BME280_pressure;Samples;Min_cycle;Max_cycle;Signal;HPM_P1;HPM_P2
2022/01/14 00:00:57;;;;;;;0.60;0.60;;;6.60;99.90;;;;;;5031265;28;20232;-88
2022/01/14 00:03:23;;;;;;;2.35;1.55;;;6.70;99.90;;;;;;5031175;28;20217;-86
2022/01/14 00:05:48;;;;;;;0.50;0.50;;;6.80;99.90;;;;;;5031149;28;20705;-83
2022/01/14 00:08:14;;;;;;;0.60;0.60;;;7.00;99.90;;;;;;5029807;28;20677;-84
2022/01/14 00:10:41;;;;;;;0.68;0.68;;;7.20;99.90;;;;;;5030868;28;20210;-84
2022/01/14 00:13:26;;;;;;;0.70;0.70;;;7.40;99.90;;;;;;5030782;28;20202;-84
2022/01/14 00:15:52;;;;;;;0.70;0.70;;;7.20;99.90;;;;;;5031109;28;20244;-84
2022/01/14 00:18:18;;;;;;;0.60;0.60;;;7.00;99.90;;;;;;5029101;28;20681;-86
2022/01/14 00:20:43;;;;;;;0.65;0.65;;;7.00;99.90;;;;;;5030789;28;20205;-84
2022/01/14 00:23:09;;;;;;;0.60;0.60;;;7.00;99.90;;;;;;5029445;28;20206;-84
2022/01/14 00:33:57;;;;;;;0.60;0.60;;;7.00;99.90;;;;;;5051830;28;20252;-85
2022/01/14 00:36:23;;;;;;;0.60;0.60;;;6.90;99.90;;;;;;5033382;28;20205;-85
2022/01/14 00:38:49;;;;;;;0.60;0.60;;;6.90;99.90;;;;;;5032311;28;20271;-84
2022/01/14 00:41:15;;;;;;;0.60;0.60;;;6.90;99.90;;;;;;5033630;28;20213;-84
2022/01/14 00:43:42;;;;;;;0.60;0.60;;;6.90;99.90;;;;;;5033705;28;20306;-84
2022/01/14 00:46:08;;;;;;;0.47;0.47;;;6.80;99.90;;;;;;5033539;28;20209;-84
2022/01/14 00:48:35;;;;;;;0.38;0.38;;;7.00;99.90;;;;;;5033064;28;20205;-85
2022/01/14 00:51:00;;;;;;;0.60;0.60;;;6.90;99.90;;;;;;5032377;28;20198;-85
2022/01/14 00:53:26;;;;;;;0.60;0.60;;;6.80;99.90;;;;;;5032510;28;20202;-84
2022/01/14 00:55:59;;;;;;;0.68;0.68;;;6.80;99.90;;;;;;5033741;28;20206;-85
2022/01/14 01:01:09;;;;;;;0.60;0.60;;;6.90;99.90;;;;;;5050532;28;20259;-86
2022/01/14 01:03:35;;;;;;;0.60;0.60;;;6.90;99.90;;;;;;5032431;28;20624;-86
2022/01/14 01:06:02;;;;;;;0.60;0.60;;;6.80;99.90;;;;;;5031932;28;20217;-85
2022/01/14 01:08:29;;;;;;;0.50;0.50;;;6.90;99.90;;;;;;5033174;28;20213;-86
2022/01/14 01:10:55;;;;;;;0.50;0.50;;;6.80;99.90;;;;;;5032221;28;20205;-86
2022/01/14 01:13:32;;;;;;;0.60;0.60;;;6.90;99.90;;;;;;5049773;28;20201;-87
2022/01/14 01:15:58;;;;;;;0.60;0.60;;;6.70;99.90;;;;;;5033431;28;20204;-87
2022/01/14 01:18:23;;;;;;;0.60;0.60;;;6.60;99.90;;;;;;5033499;28;20201;-86
2022/01/14 01:20:50;;;;;;;0.60;0.60;;;6.50;99.90;;;;;;5033262;28;20224;-86
2022/01/14 01:23:16;;;;;;;0.60;0.60;;;6.20;99.90;;;;;;5031984;28;20202;-87
2022/01/14 01:25:48;;;;;;;0.60;0.60;;;6.00;99.90;;;;;;5050601;28;20267;-86
2022/01/14 01:28:14;;;;;;;0.80;0.80;;;5.80;99.90;;;;;;5029307;28;20250;-87
2022/01/14 01:30:51;;;;;;;0.65;0.65;;;5.60;99.90;;;;;;5028814;28;20214;-86
2022/01/14 01:33:20;;;;;;;0.60;0.60;;;5.40;99.90;;;;;;5030176;28;20199;-86
2022/01/14 01:35:47;;;;;;;0.63;0.63;;;5.20;99.90;;;;;;5032395;28;20206;-87
2022/01/14 01:38:16;;;;;;;0.70;0.70;;;5.30;99.90;;;;;;5032152;28;20666;-87
2022/01/14 01:40:46;;;;;;;0.60;0.60;;;5.60;99.90;;;;;;5033437;28;20658;-86
2022/01/14 01:43:13;;;;;;;0.63;0.63;;;5.80;99.90;;;;;;5032190;28;20202;-85
2022/01/14 01:45:40;;;;;;;0.70;0.70;;;6.00;99.90;;;;;;5033147;28;20205;-86
2022/01/14 01:48:06;;;;;;;0.70;0.70;;;6.40;99.90;;;;;;5033238;28;20209;-85
2022/01/14 01:50:32;;;;;;;0.70;0.70;;;6.40;99.90;;;;;;5033125;28;20198;-87
2022/01/14 01:52:58;;;;;;;0.60;0.60;;;6.50;99.90;;;;;;5035172;28;20203;-86
2022/01/14 01:55:24;;;;;;;0.70;0.70;;;6.70;99.90;;;;;;5033714;28;20570;-86
2022/01/14 01:57:52;;;;;;;0.60;0.60;;;7.10;99.90;;;;;;5032336;28;20225;-85
2022/01/14 02:00:21;;;;;;;0.60;0.60;;;7.10;99.90;;;;;;5033897;28;20208;-87
2022/01/14 02:02:48;;;;;;;0.60;0.60;;;7.20;99.90;;;;;;5033077;28;20198;-88
2022/01/14 02:05:15;;;;;;;0.50;0.50;;;7.30;99.90;;;;;;5033883;28;20213;-88
2022/01/14 02:07:42;;;;;;;0.50;0.50;;;7.60;99.90;;;;;;5032385;28;20198;-88
2022/01/14 02:10:09;;;;;;;0.60;0.60;;;7.90;99.90;;;;;;5033707;28;20198;-88
2022/01/14 02:12:38;;;;;;;0.60;0.60;;;8.10;99.90;;;;;;5031803;28;20245;-88
2022/01/14 02:15:10;;;;;;;0.60;0.60;;;8.10;99.90;;;;;;5033536;28;20224;-87
2022/01/14 02:18:02;;;;;;;0.60;0.60;;;8.10;99.90;;;;;;5031634;28;20205;-88
2022/01/14 02:23:07;;;;;;;0.50;0.50;;;7.70;99.90;;;;;;5034375;28;20213;-86
2022/01/14 02:25:33;;;;;;;0.50;0.50;;;7.10;99.90;;;;;;5033146;28;20341;-85
2022/01/14 02:28:06;;;;;;;0.57;0.57;;;6.70;99.90;;;;;;5034206;28;20230;-84
2022/01/14 02:30:33;;;;;;;0.60;0.60;;;6.30;99.90;;;;;;5036154;28;20216;-85
2022/01/14 02:32:59;;;;;;;0.70;0.70;;;6.00;99.90;;;;;;5035924;28;20250;-85
2022/01/14 02:35:26;;;;;;;0.60;0.60;;;5.90;99.90;;;;;;5035172;28;20232;-86
2022/01/14 02:37:52;;;;;;;0.60;0.60;;;5.70;99.90;;;;;;5035816;28;20597;-85
2022/01/14 02:40:21;;;;;;;0.60;0.60;;;5.60;99.90;;;;;;5035704;28;20213;-85
2022/01/14 02:42:49;;;;;;;0.50;0.50;;;5.50;99.90;;;;;;5034275;28;20237;-85
2022/01/14 02:45:16;;;;;;;0.52;0.52;;;5.20;99.90;;;;;;5033546;28;20210;-85
2022/01/14 02:47:43;;;;;;;0.60;0.60;;;5.20;99.90;;;;;;5033551;28;20197;-87
2022/01/14 02:50:14;;;;;;;0.50;0.50;;;5.10;99.90;;;;;;5035264;28;20202;-86
2022/01/14 02:52:53;;;;;;;0.63;0.63;;;5.10;99.90;;;;;;5034940;28;20637;-86
2022/01/14 02:55:31;;;;;;;0.70;0.70;;;4.90;99.90;;;;;;5036196;28;20224;-85
2022/01/14 02:57:59;;;;;;;0.70;0.70;;;4.70;99.90;;;;;;5035072;28;20197;-86
2022/01/14 03:00:30;;;;;;;0.60;0.60;;;4.60;99.90;;;;;;5035505;28;20635;-87
2022/01/14 03:03:00;;;;;;;0.70;0.70;;;4.30;99.90;;;;;;5035811;28;20707;-88
2022/01/14 03:05:28;;;;;;;0.60;0.60;;;4.20;99.90;;;;;;5034138;28;20243;-86
2022/01/14 03:07:54;;;;;;;0.60;0.60;;;4.00;99.90;;;;;;5034368;28;20242;-87
2022/01/14 03:10:20;;;;;;;0.50;0.50;;;3.90;99.90;;;;;;5035308;28;20206;-87
2022/01/14 03:12:47;;;;;;;0.50;0.50;;;4.00;99.90;;;;;;5035458;28;20206;-85
2022/01/14 03:15:14;;;;;;;0.60;0.60;;;4.10;99.90;;;;;;5034200;28;20292;-86
2022/01/14 03:17:40;;;;;;;0.60;0.60;;;4.30;99.90;;;;;;5035059;28;20593;-87
2022/01/14 03:20:08;;;;;;;0.60;0.60;;;4.50;99.90;;;;;;5035096;28;20261;-86
2022/01/14 03:22:36;;;;;;;0.40;0.40;;;4.80;99.90;;;;;;5035371;28;20208;-86
2022/01/14 03:27:48;;;;;;;0.60;0.60;;;5.00;99.90;;;;;;5043694;28;20321;-87
2022/01/14 03:30:14;;;;;;;0.50;0.50;;;5.10;99.90;;;;;;5026507;28;20245;-88
2022/01/14 03:32:41;;;;;;;0.60;0.60;;;5.00;99.90;;;;;;5033755;28;20619;-88
2022/01/14 03:35:08;;;;;;;0.57;0.57;;;5.20;99.90;;;;;;5035415;28;20198;-86
2022/01/14 03:37:34;;;;;;;0.50;0.50;;;5.20;99.90;;;;;;5033590;28;20253;-88
2022/01/14 03:40:00;;;;;;;0.70;0.70;;;5.30;99.90;;;;;;5034102;28;20205;-87
2022/01/14 03:42:26;;;;;;;0.60;0.60;;;5.30;99.90;;;;;;5034981;28;20205;-87
2022/01/14 03:44:51;;;;;;;0.60;0.60;;;5.30;99.90;;;;;;5033855;28;20668;-85
2022/01/14 03:47:18;;;;;;;0.60;0.60;;;5.40;99.90;;;;;;5051953;28;20292;-88
2022/01/14 03:49:43;;;;;;;0.50;0.50;;;5.30;99.90;;;;;;5034930;28;20202;-87
2022/01/14 03:52:09;;;;;;;0.68;0.68;;;5.30;99.90;;;;;;5033803;28;20314;-87
2022/01/14 03:54:34;;;;;;;0.50;0.50;;;5.30;99.90;;;;;;5034935;28;20193;-89
2022/01/14 03:57:00;;;;;;;0.60;0.60;;;5.50;99.90;;;;;;5034597;28;20201;-88
2022/01/14 03:59:26;;;;;;;0.60;0.60;;;5.60;99.90;;;;;;5033619;28;20235;-88
2022/01/14 04:01:52;;;;;;;0.50;0.50;;;5.50;99.90;;;;;;5034219;28;20209;-88
2022/01/14 04:04:17;;;;;;;0.70;0.70;;;5.50;99.90;;;;;;5034976;28;20296;-89
2022/01/14 04:06:43;;;;;;;0.60;0.60;;;5.50;99.90;;;;;;5035190;28;20216;-86
2022/01/14 04:09:09;;;;;;;0.60;0.60;;;5.40;99.90;;;;;;5033971;28;20197;-88
2022/01/14 04:11:35;;;;;;;0.50;0.50;;;5.40;99.90;;;;;;5050516;28;20254;-90
2022/01/14 04:16:54;;;;;;;0.50;0.50;;;5.40;99.90;;;;;;5024688;28;20288;-87
2022/01/14 04:19:20;;;;;;;0.60;0.60;;;5.40;99.90;;;;;;5034530;28;20229;-88
2022/01/14 04:21:46;;;;;;;0.70;0.70;;;5.30;99.90;;;;;;5033603;28;20244;-90
2022/01/14 04:24:12;;;;;;;0.60;0.60;;;5.30;99.90;;;;;;5035103;28;20656;-87
2022/01/14 04:26:37;;;;;;;0.50;0.50;;;5.30;99.90;;;;;;5034185;28;20248;-87
2022/01/14 04:29:03;;;;;;;0.60;0.60;;;5.30;99.90;;;;;;5031211;28;20230;-87
2022/01/14 04:31:29;;;;;;;0.68;0.68;;;5.20;99.90;;;;;;5030066;28;20210;-88
2022/01/14 04:33:55;;;;;;;0.70;0.70;;;5.20;99.90;;;;;;5031062;28;20673;-86
2022/01/14 04:36:20;;;;;;;0.60;0.60;;;5.20;99.90;;;;;;5025006;28;20682;-86
2022/01/14 04:38:46;;;;;;;0.70;0.70;;;5.10;99.90;;;;;;5020175;28;20293;-87
2022/01/14 04:41:12;;;;;;;0.60;0.60;;;4.90;99.90;;;;;;5032206;28;20206;-87
2022/01/14 04:43:39;;;;;;;0.63;0.63;;;4.60;99.90;;;;;;5029788;28;20210;-86
2022/01/14 04:48:35;;;;;;;0.63;0.63;;;4.20;99.90;;;;;;5034977;28;20569;-88
2022/01/14 04:51:02;;;;;;;0.73;0.73;;;4.00;99.90;;;;;;5032285;28;20199;-89
2022/01/14 04:53:28;;;;;;;0.70;0.70;;;4.00;99.90;;;;;;5030933;28;20677;-88
2022/01/14 04:55:55;;;;;;;0.60;0.60;;;3.90;99.90;;;;;;5031502;28;20653;-89
2022/01/14 04:58:25;;;;;;;0.60;0.60;;;4.00;99.90;;;;;;5031091;28;20684;-89
2022/01/14 05:00:51;;;;;;;0.60;0.60;;;4.10;99.90;;;;;;5030908;28;20743;-88
2022/01/14 05:03:17;;;;;;;0.50;0.50;;;4.10;99.90;;;;;;5031655;28;20210;-89
2022/01/14 05:05:46;;;;;;;0.80;0.80;;;4.00;99.90;;;;;;5029806;28;20210;-90
2022/01/14 05:08:19;;;;;;;0.60;0.60;;;4.30;99.90;;;;;;5030035;28;20226;-89
2022/01/14 05:13:23;;;;;;;0.70;0.70;;;4.40;99.90;;;;;;5036426;28;20206;-89
2022/01/14 05:15:50;;;;;;;0.60;0.60;;;4.50;99.90;;;;;;5034685;28;20264;-89
2022/01/14 05:18:15;;;;;;;0.70;0.70;;;4.60;99.90;;;;;;5035003;28;20673;-88
2022/01/14 05:20:42;;;;;;;0.88;0.88;;;4.60;99.90;;;;;;5035978;28;20209;-89
2022/01/14 05:23:07;;;;;;;0.60;0.60;;;4.60;99.90;;;;;;5035772;28;20316;-88
2022/01/14 05:25:33;;;;;;;0.63;0.63;;;4.60;99.90;;;;;;5034133;28;20218;-89
2022/01/14 05:27:59;;;;;;;0.55;0.55;;;4.70;99.90;;;;;;5037290;28;20205;-90
2022/01/14 05:30:25;;;;;;;0.60;0.60;;;4.70;99.90;;;;;;5039056;28;20677;-91
2022/01/14 05:32:53;;;;;;;0.50;0.50;;;4.60;99.90;;;;;;5056434;28;20209;-88
2022/01/14 05:35:21;;;;;;;0.60;0.60;;;4.60;99.90;;;;;;5038828;28;20664;-89
2022/01/14 05:37:47;;;;;;;0.65;0.65;;;4.70;99.90;;;;;;5038626;28;20197;-89
2022/01/14 05:40:15;;;;;;;0.70;0.70;;;4.90;99.90;;;;;;5038705;28;20197;-89
2022/01/14 05:42:41;;;;;;;0.60;0.60;;;4.80;99.90;;;;;;5036995;28;20197;-89
2022/01/14 05:45:09;;;;;;;0.60;0.60;;;4.60;99.90;;;;;;5037996;28;21126;-88
2022/01/14 05:47:37;;;;;;;0.70;0.70;;;4.60;99.90;;;;;;5036200;28;20613;-89
2022/01/14 05:50:04;;;;;;;0.60;0.60;;;4.60;99.90;;;;;;5037526;28;20198;-89
2022/01/14 05:52:29;;;;;;;0.60;0.60;;;4.60;99.90;;;;;;5035597;28;20201;-89
2022/01/14 05:54:58;;;;;;;0.60;0.60;;;4.60;99.90;;;;;;5036135;28;20189;-90
2022/01/14 05:57:24;;;;;;;0.60;0.60;;;4.60;99.90;;;;;;5017998;28;20216;-91
2022/01/14 05:59:53;;;;;;;0.70;0.70;;;4.50;99.90;;;;;;5037519;28;20595;-89
2022/01/14 06:02:19;;;;;;;0.60;0.60;;;4.50;99.90;;;;;;5036845;28;20205;-88
2022/01/14 06:04:45;;;;;;;0.60;0.60;;;4.40;99.90;;;;;;5036359;28;20349;-89
2022/01/14 06:07:11;;;;;;;0.60;0.60;;;4.30;99.90;;;;;;5035644;28;20221;-87
2022/01/14 06:09:37;;;;;;;0.52;0.52;;;4.30;99.90;;;;;;5036131;28;20224;-87
2022/01/14 06:12:04;;;;;;;0.60;0.60;;;4.20;99.90;;;;;;5054209;28;20299;-91
2022/01/14 06:14:30;;;;;;;0.65;0.65;;;4.30;99.90;;;;;;5036773;28;20201;-92
2022/01/14 06:16:56;;;;;;;0.60;0.60;;;4.20;99.90;;;;;;5036833;28;20202;-92
2022/01/14 06:19:23;;;;;;;0.70;0.70;;;4.30;99.90;;;;;;5037787;28;20202;-88
2022/01/14 06:21:49;;;;;;;0.52;0.52;;;4.40;99.90;;;;;;5034919;28;20665;-90
2022/01/14 06:24:15;;;;;;;0.60;0.60;;;4.20;99.90;;;;;;5037077;28;20244;-93
2022/01/14 06:26:40;;;;;;;0.50;0.50;;;4.20;99.90;;;;;;5037023;28;20224;-91
2022/01/14 06:29:06;;;;;;;0.50;0.50;;;4.20;99.90;;;;;;5033274;28;20214;-91
2022/01/14 06:31:32;;;;;;;0.65;0.65;;;4.10;99.90;;;;;;5032507;28;20224;-92
2022/01/14 06:33:57;;;;;;;0.50;0.50;;;4.10;99.90;;;;;;5032474;28;20202;-90
2022/01/14 06:36:23;;;;;;;0.60;0.60;;;4.10;99.90;;;;;;5033117;28;20206;-90
2022/01/14 06:38:49;;;;;;;0.60;0.60;;;4.10;99.90;;;;;;5034678;28;20565;-90
2022/01/14 06:41:15;;;;;;;0.60;0.60;;;4.00;99.90;;;;;;5032903;28;20209;-90
2022/01/14 06:43:41;;;;;;;0.60;0.60;;;4.00;99.90;;;;;;5032356;28;20209;-91
2022/01/14 06:46:06;;;;;;;0.60;0.60;;;3.90;99.90;;;;;;5033766;28;20235;-89
2022/01/14 06:48:34;;;;;;;0.63;0.63;;;3.90;99.90;;;;;;5033585;28;20213;-91
2022/01/14 06:51:00;;;;;;;0.60;0.60;;;3.90;99.90;;;;;;5033429;28;20205;-91
2022/01/14 06:53:25;;;;;;;0.60;0.60;;;3.90;99.90;;;;;;5034330;28;20209;-92
2022/01/14 06:55:51;;;;;;;0.60;0.60;;;3.90;99.90;;;;;;5033555;28;20290;-86
2022/01/14 06:58:17;;;;;;;0.60;0.60;;;3.90;99.90;;;;;;5033527;28;20213;-88
2022/01/14 07:00:48;;;;;;;0.52;0.52;;;3.70;99.90;;;;;;5032032;28;20634;-92
2022/01/14 07:03:14;;;;;;;0.80;0.80;;;3.70;99.90;;;;;;5032000;28;20663;-90
2022/01/14 07:05:40;;;;;;;1.10;1.00;;;3.70;99.90;;;;;;5033326;28;20245;-93
2022/01/14 07:08:05;;;;;;;0.70;0.70;;;3.70;99.90;;;;;;5032856;28;20669;-89
2022/01/14 07:10:36;;;;;;;0.70;0.70;;;3.70;99.90;;;;;;5032649;28;20202;-88
2022/01/14 07:13:03;;;;;;;0.57;0.57;;;3.70;99.90;;;;;;5033058;28;20198;-92
2022/01/14 07:15:28;;;;;;;1.00;1.00;;;3.60;99.90;;;;;;5031603;28;20293;-91
2022/01/14 07:17:56;;;;;;;0.70;0.70;;;3.60;99.90;;;;;;5031860;28;20265;-92
2022/01/14 07:20:22;;;;;;;0.70;0.70;;;3.50;99.90;;;;;;5032298;28;20206;-92
2022/01/14 07:22:47;;;;;;;0.70;0.70;;;3.50;99.90;;;;;;5031341;28;20229;-89
2022/01/14 07:25:13;;;;;;;0.60;0.60;;;3.50;99.90;;;;;;5032621;28;20247;-90
2022/01/14 07:27:41;;;;;;;0.50;0.50;;;3.40;99.90;;;;;;5032228;28;20206;-90
2022/01/14 07:30:09;;;;;;;0.70;0.70;;;3.40;99.90;;;;;;5032785;28;20232;-90
2022/01/14 07:32:35;;;;;;;0.60;0.60;;;3.40;99.90;;;;;;5032480;28;20201;-90
2022/01/14 07:35:04;;;;;;;1.50;0.93;;;3.30;99.90;;;;;;5032542;28;20212;-90
2022/01/14 07:37:30;;;;;;;0.60;0.60;;;3.20;99.90;;;;;;5031139;28;20213;-91
2022/01/14 07:39:56;;;;;;;0.60;0.60;;;3.20;99.90;;;;;;5033146;28;20577;-92
2022/01/14 07:42:21;;;;;;;0.60;0.60;;;3.10;99.90;;;;;;5031415;28;20216;-90
2022/01/14 07:44:47;;;;;;;0.60;0.60;;;3.10;99.90;;;;;;5032821;28;20233;-89
2022/01/14 07:47:13;;;;;;;0.70;0.70;;;3.00;99.90;;;;;;5031420;28;20237;-88
2022/01/14 07:49:39;;;;;;;0.70;0.70;;;3.00;99.90;;;;;;5032350;28;20691;-90
2022/01/14 07:52:05;;;;;;;0.75;0.75;;;3.00;99.90;;;;;;5031539;28;20216;-89
2022/01/14 07:54:31;;;;;;;0.70;0.70;;;3.00;99.90;;;;;;5032003;28;20747;-91
2022/01/14 07:57:00;;;;;;;0.70;0.70;;;3.10;99.90;;;;;;5030654;28;20202;-90
2022/01/14 07:59:32;;;;;;;0.77;0.77;;;3.00;99.90;;;;;;5032166;28;20645;-88
2022/01/14 08:01:59;;;;;;;0.90;0.90;;;3.00;99.90;;;;;;5031765;28;20304;-91
2022/01/14 08:04:26;;;;;;;0.60;0.60;;;3.00;99.90;;;;;;5030385;28;20699;-91
2022/01/14 08:06:56;;;;;;;0.68;0.68;;;2.90;99.90;;;;;;5030389;28;20206;-89
2022/01/14 08:09:23;;;;;;;0.65;0.65;;;2.90;99.90;;;;;;5030309;28;20202;-89
2022/01/14 08:11:50;;;;;;;0.50;0.50;;;2.90;99.90;;;;;;5030913;28;20678;-89
2022/01/14 08:14:16;;;;;;;0.60;0.60;;;2.90;99.90;;;;;;5030719;28;20208;-91
2022/01/14 08:16:41;;;;;;;0.50;0.50;;;2.80;99.90;;;;;;5030331;28;20294;-91
2022/01/14 08:19:07;;;;;;;0.60;0.60;;;2.90;99.90;;;;;;5032813;28;20277;-88
2022/01/14 08:21:33;;;;;;;0.60;0.60;;;2.80;99.90;;;;;;5031235;28;20296;-91
2022/01/14 08:23:59;;;;;;;0.60;0.60;;;2.70;99.90;;;;;;5032154;28;20549;-90
2022/01/14 08:26:25;;;;;;;0.70;0.70;;;2.80;99.90;;;;;;5029661;28;20740;-89
2022/01/14 08:28:51;;;;;;;0.70;0.70;;;2.80;99.90;;;;;;5031183;28;20226;-89
2022/01/14 08:31:18;;;;;;;0.60;0.60;;;2.80;99.90;;;;;;5031100;28;20220;-89
2022/01/14 08:33:46;;;;;;;0.60;0.60;;;2.80;99.90;;;;;;5031485;28;20221;-91
2022/01/14 08:36:12;;;;;;;0.60;0.60;;;2.90;99.90;;;;;;5032255;28;20220;-88
2022/01/14 08:38:38;;;;;;;0.60;0.60;;;3.00;99.90;;;;;;5030254;28;20293;-91
2022/01/14 08:41:04;;;;;;;0.60;0.60;;;3.00;99.90;;;;;;5033053;28;20229;-88
2022/01/14 08:43:30;;;;;;;0.60;0.60;;;3.00;99.90;;;;;;5030055;28;20209;-89
2022/01/14 08:46:01;;;;;;;0.60;0.60;;;2.90;99.90;;;;;;5031239;28;20213;-85
2022/01/14 08:48:27;;;;;;;0.55;0.55;;;2.90;99.90;;;;;;5033303;28;20559;-84
2022/01/14 08:50:53;;;;;;;0.60;0.60;;;3.00;99.90;;;;;;5035099;28;20197;-82
2022/01/14 08:53:19;;;;;;;0.70;0.70;;;3.00;99.90;;;;;;5034532;28;20210;-85
2022/01/14 08:55:44;;;;;;;0.80;0.80;;;2.90;99.90;;;;;;5033133;28;20321;-84
2022/01/14 08:58:10;;;;;;;0.57;0.57;;;2.90;99.90;;;;;;5034466;28;20579;-84
2022/01/14 09:00:37;;;;;;;0.50;0.50;;;3.00;99.90;;;;;;5034595;28;20304;-87
2022/01/14 09:03:06;;;;;;;0.70;0.70;;;2.90;99.90;;;;;;5033729;28;20554;-84
2022/01/14 09:05:33;;;;;;;0.63;0.63;;;2.90;99.90;;;;;;5034569;28;20194;-83
2022/01/14 09:08:00;;;;;;;0.63;0.63;;;2.90;99.90;;;;;;5035635;28;20194;-89
2022/01/14 09:10:26;;;;;;;0.60;0.60;;;3.00;99.90;;;;;;5032641;28;20199;-85
2022/01/14 09:12:52;;;;;;;0.60;0.60;;;2.90;99.90;;;;;;5033227;28;20194;-84
2022/01/14 09:15:18;;;;;;;0.68;0.68;;;3.00;99.90;;;;;;5034029;28;20209;-87
2022/01/14 09:17:44;;;;;;;0.60;0.60;;;3.00;99.90;;;;;;5033797;28;20747;-85
2022/01/14 09:20:13;;;;;;;0.70;0.70;;;3.00;99.90;;;;;;5034256;28;20202;-83
2022/01/14 09:22:42;;;;;;;0.60;0.60;;;3.00;99.90;;;;;;5032855;28;20202;-83
2022/01/14 09:25:09;;;;;;;1.13;1.02;;;3.10;99.90;;;;;;5035023;28;20536;-84
2022/01/14 09:27:35;;;;;;;0.50;0.50;;;3.00;99.90;;;;;;5034731;28;20214;-84
2022/01/14 09:30:05;;;;;;;0.65;0.65;;;3.00;99.90;;;;;;5033495;28;20679;-86
2022/01/14 09:32:31;;;;;;;0.93;0.93;;;3.10;99.90;;;;;;5033395;28;20206;-85
2022/01/14 09:34:57;;;;;;;0.65;0.65;;;3.10;99.90;;;;;;5033540;28;20297;-85
2022/01/14 09:37:23;;;;;;;0.60;0.60;;;3.20;99.90;;;;;;5033223;28;20279;-85
2022/01/14 09:39:49;;;;;;;1.17;1.08;;;3.20;99.90;;;;;;5035390;28;20673;-82
2022/01/14 09:42:15;;;;;;;0.50;0.50;;;3.30;99.90;;;;;;5033818;28;20209;-84
2022/01/14 09:44:43;;;;;;;0.60;0.60;;;3.20;99.90;;;;;;5033645;28;20264;-84
2022/01/14 09:47:09;;;;;;;1.02;1.02;;;3.30;99.90;;;;;;5034933;28;20214;-85
2022/01/14 09:49:37;;;;;;;0.60;0.60;;;3.20;99.90;;;;;;5028846;28;20282;-86
2022/01/14 09:52:03;;;;;;;0.68;0.68;;;3.20;99.90;;;;;;5019630;28;20681;-86
2022/01/14 09:54:29;;;;;;;0.65;0.65;;;3.30;99.90;;;;;;5033057;28;20702;-84
2022/01/14 09:56:54;;;;;;;0.50;0.50;;;3.30;99.90;;;;;;5034390;28;20198;-84
2022/01/14 09:59:20;;;;;;;0.70;0.70;;;3.40;99.90;;;;;;5033301;28;20228;-84
2022/01/14 10:01:48;;;;;;;0.70;0.70;;;3.40;99.90;;;;;;5034146;28;20194;-85
2022/01/14 10:04:22;;;;;;;0.60;0.60;;;3.40;99.90;;;;;;5033035;28;20202;-83
2022/01/14 10:06:52;;;;;;;0.70;0.70;;;3.40;99.90;;;;;;5033406;28;20201;-85
2022/01/14 10:09:31;;;;;;;0.60;0.60;;;3.50;99.90;;;;;;5050367;28;20580;-85
2022/01/14 10:12:12;;;;;;;0.60;0.60;;;3.60;99.90;;;;;;5048607;28;20198;-85
2022/01/14 10:14:40;;;;;;;0.65;0.65;;;3.50;99.90;;;;;;5015247;28;20206;-85
2022/01/14 10:17:09;;;;;;;0.43;0.43;;;3.60;99.90;;;;;;5031839;28;20214;-85
2022/01/14 10:19:40;;;;;;;0.70;0.70;;;3.60;99.90;;;;;;5031657;28;20202;-84
2022/01/14 10:22:29;;;;;;;0.70;0.70;;;3.60;99.90;;;;;;5032171;28;20674;-84
2022/01/14 10:25:07;;;;;;;0.60;0.60;;;3.60;99.90;;;;;;5031277;28;20198;-84
2022/01/14 10:27:40;;;;;;;1.27;1.17;;;3.60;99.90;;;;;;5031039;28;20264;-84
2022/01/14 10:30:29;;;;;;;0.60;0.60;;;3.60;99.90;;;;;;5034497;28;20237;-83
2022/01/14 10:33:08;;;;;;;0.80;0.80;;;3.50;99.90;;;;;;5039155;28;20201;-83
2022/01/14 10:35:42;;;;;;;0.60;0.60;;;3.60;99.90;;;;;;5035469;28;20201;-83
2022/01/14 10:38:10;;;;;;;0.68;0.68;;;3.60;99.90;;;;;;5034150;28;20198;-84
2022/01/14 10:40:41;;;;;;;0.70;0.70;;;3.50;99.90;;;;;;5034770;28;20685;-86
2022/01/14 10:43:09;;;;;;;0.50;0.50;;;3.50;99.90;;;;;;5034293;28;20548;-86
2022/01/14 10:45:37;;;;;;;0.52;0.52;;;3.60;99.90;;;;;;5035329;28;20201;-84
2022/01/14 10:48:08;;;;;;;0.60;0.60;;;3.60;99.90;;;;;;5035592;28;20220;-87
2022/01/14 10:50:44;;;;;;;0.57;0.57;;;3.60;99.90;;;;;;5034531;28;20691;-85
2022/01/14 10:53:22;;;;;;;0.60;0.60;;;3.60;99.90;;;;;;5034902;28;20216;-87
2022/01/14 10:55:50;;;;;;;0.70;0.70;;;3.60;99.90;;;;;;5035958;28;20201;-86
2022/01/14 10:58:33;;;;;;;0.55;0.55;;;3.50;99.90;;;;;;5034569;28;20210;-86
2022/01/14 11:01:05;;;;;;;0.70;0.70;;;3.50;99.90;;;;;;5035747;28;20205;-86
2022/01/14 11:03:43;;;;;;;0.80;0.80;;;3.60;99.90;;;;;;5034286;28;20301;-85
2022/01/14 11:09:23;;;;;;;0.63;0.63;;;3.80;99.90;;;;;;5052549;28;20242;-84
2022/01/14 11:11:50;;;;;;;0.50;0.50;;;3.70;99.90;;;;;;5033675;28;20197;-85
2022/01/14 11:14:16;;;;;;;0.50;0.50;;;3.60;99.90;;;;;;5032796;28;20228;-83
2022/01/14 11:16:43;;;;;;;0.70;0.70;;;3.70;99.90;;;;;;5034575;28;20201;-83
2022/01/14 11:19:10;;;;;;;0.52;0.52;;;3.80;99.90;;;;;;5034700;28;20197;-83
2022/01/14 11:24:29;;;;;;;0.60;0.60;;;3.70;99.90;;;;;;5051526;28;20315;-86
2022/01/14 11:27:07;;;;;;;0.52;0.52;;;3.80;99.90;;;;;;5049372;28;20576;-83
2022/01/14 11:29:36;;;;;;;0.60;0.60;;;3.70;99.90;;;;;;5036100;28;20677;-81
2022/01/14 11:32:05;;;;;;;0.70;0.70;;;3.70;99.90;;;;;;5031374;28;20246;-83
2022/01/14 11:34:31;;;;;;;0.70;0.70;;;3.70;99.90;;;;;;5029581;28;20221;-84
2022/01/14 11:37:02;;;;;;;0.57;0.57;;;3.60;99.90;;;;;;5031472;28;20202;-84
2022/01/14 11:39:37;;;;;;;0.57;0.57;;;3.50;99.90;;;;;;5031600;28;20228;-84
2022/01/14 11:42:08;;;;;;;0.65;0.65;;;3.60;99.90;;;;;;5031601;28;20287;-83
2022/01/14 11:44:45;;;;;;;0.70;0.70;;;3.60;99.90;;;;;;5031199;28;20202;-83
2022/01/14 11:47:28;;;;;;;0.70;0.70;;;3.60;99.90;;;;;;5031464;28;20217;-84
2022/01/14 11:49:58;;;;;;;0.60;0.60;;;3.50;99.90;;;;;;5031409;28;20716;-84
2022/01/14 11:52:37;;;;;;;0.50;0.50;;;3.50;99.90;;;;;;5030915;28;20712;-84
2022/01/14 11:55:19;;;;;;;0.70;0.70;;;3.60;99.90;;;;;;5030802;28;20202;-82
2022/01/14 11:57:47;;;;;;;0.70;0.70;;;3.60;99.90;;;;;;5030584;28;20213;-83
2022/01/14 12:00:25;;;;;;;0.68;0.68;;;3.60;99.90;;;;;;5030960;28;20304;-83
2022/01/14 12:02:52;;;;;;;0.80;0.80;;;3.60;99.90;;;;;;5031990;28;20611;-83
2022/01/14 12:05:23;;;;;;;0.60;0.60;;;3.60;99.90;;;;;;5029553;28;20267;-84
2022/01/14 12:08:01;;;;;;;0.60;0.60;;;3.60;99.90;;;;;;5030693;28;20232;-83
2022/01/14 12:10:32;;;;;;;0.60;0.60;;;3.60;99.90;;;;;;5031110;28;20198;-84
2022/01/14 12:14:18;;;;;;;0.60;0.60;;;3.60;99.90;;;;;;5031954;28;20197;-84
2022/01/14 12:16:25;;;;;;;0.68;0.68;;;3.60;99.90;;;;;;5017981;28;20205;-84
2022/01/14 12:19:02;;;;;;;0.60;0.60;;;3.60;99.90;;;;;;5031052;28;20213;-82
2022/01/14 12:21:54;;;;;;;0.60;0.60;;;3.60;99.90;;;;;;5029945;28;20248;-83
2022/01/14 12:24:27;;;;;;;0.60;0.60;;;3.50;99.90;;;;;;5030732;28;20201;-84
2022/01/14 12:26:52;;;;;;;0.60;0.60;;;3.50;99.90;;;;;;5031809;28;20262;-83
2022/01/14 12:29:20;;;;;;;0.80;0.80;;;3.40;99.90;;;;;;5030259;28;20678;-82
2022/01/14 12:32:09;;;;;;;0.60;0.60;;;3.40;99.90;;;;;;5030427;28;20752;-84
2022/01/14 12:34:41;;;;;;;0.60;0.60;;;3.50;99.90;;;;;;5028957;28;20202;-83
2022/01/14 12:37:10;;;;;;;0.60;0.60;;;3.60;99.90;;;;;;5030351;28;20206;-83
2022/01/14 12:39:38;;;;;;;0.60;0.60;;;3.50;99.90;;;;;;5028732;28;20206;-83
2022/01/14 12:42:05;;;;;;;0.60;0.60;;;3.50;99.90;;;;;;5030314;28;20210;-83
2022/01/14 12:44:30;;;;;;;0.70;0.70;;;3.50;99.90;;;;;;5028936;28;20210;-82
2022/01/14 12:47:09;;;;;;;0.80;0.80;;;3.50;99.90;;;;;;5029230;28;20214;-82
2022/01/14 12:49:36;;;;;;;2.42;1.52;;;3.50;99.40;;;;;;5028768;28;20209;-84
2022/01/14 12:52:03;;;;;;;0.55;0.55;;;3.60;99.20;;;;;;5030302;28;20202;-84
2022/01/14 12:54:31;;;;;;;0.60;0.60;;;3.60;99.90;;;;;;5030062;28;20572;-84
2022/01/14 12:57:00;;;;;;;0.60;0.60;;;3.50;99.90;;;;;;5029992;28;20216;-82
2022/01/14 12:59:27;;;;;;;0.47;0.47;;;3.40;99.90;;;;;;5029988;28;20210;-81
2022/01/14 13:01:57;;;;;;;0.70;0.70;;;3.50;99.90;;;;;;5029169;28;20202;-88
2022/01/14 13:04:24;;;;;;;0.57;0.57;;;3.50;99.80;;;;;;5029568;28;20214;-86
2022/01/14 13:06:55;;;;;;;0.50;0.50;;;3.50;99.90;;;;;;5032601;28;20270;-86
2022/01/14 13:09:24;;;;;;;0.60;0.60;;;3.50;99.30;;;;;;5031826;28;20201;-87
2022/01/14 13:12:04;;;;;;;0.60;0.60;;;3.50;99.90;;;;;;5030476;28;20202;-85
2022/01/14 13:14:36;;;;;;;0.70;0.70;;;3.40;99.90;;;;;;5028782;28;20285;-85
2022/01/14 13:17:04;;;;;;;0.63;0.63;;;3.30;99.90;;;;;;5026206;28;20298;-85
2022/01/14 13:19:32;;;;;;;0.60;0.60;;;3.20;99.90;;;;;;5015963;28;20734;-85
2022/01/14 13:22:00;;;;;;;0.57;0.57;;;3.20;99.90;;;;;;5029154;28;20270;-85
2022/01/14 13:24:31;;;;;;;0.90;0.90;;;3.10;99.90;;;;;;5029973;28;20290;-84
2022/01/14 13:27:09;;;;;;;0.50;0.50;;;3.10;99.90;;;;;;5030022;28;20206;-86
2022/01/14 13:29:55;;;;;;;0.60;0.60;;;3.10;99.90;;;;;;5030980;28;20225;-87
2022/01/14 13:32:34;;;;;;;0.60;0.60;;;3.10;99.90;;;;;;5032418;28;20202;-85
2022/01/14 13:35:14;;;;;;;0.60;0.60;;;3.10;99.90;;;;;;5033595;28;20209;-85